Time;durP1;ratioP1;P1;durP2;ratioP2;P2;SDS_P1;SDS_P2;PMS_P1;PMS_P2;Temp;Humidity;BMP_temperature;BMP_pressure;BME280_temperature;BME280_humidity;BME280_pressure;Samples;Min_cycle;Max_cycle;Signal;HPM_P1;HPM_P2
2021/01/04 00:02:25;;;;;;;2.60;1.10;;;4.00;99.90;;;;;;5028651;28;20483;-48
2021/01/04 00:05:29;;;;;;;0.70;0.60;;;4.00;99.90;;;;;;5016440;28;20056;-48
2021/01/04 00:08:02;;;;;;;0.30;0.30;;;4.00;99.90;;;;;;5016578;28;20061;-49
2021/01/04 00:10:39;;;;;;;0.55;0.45;;;4.00;99.90;;;;;;5027418;28;20509;-51
2021/01/04 00:13:20;;;;;;;1.60;0.60;;;4.00;99.90;;;;;;5027497;28;20049;-49
2021/01/04 00:16:09;;;;;;;0.43;0.40;;;4.00;99.90;;;;;;5027197;28;20045;-48
2021/01/04 00:18:47;;;;;;;0.40;0.30;;;3.90;99.90;;;;;;5028233;28;20459;-48
2021/01/04 00:21:45;;;;;;;0.40;0.30;;;4.00;99.90;;;;;;5023422;28;20041;-48
2021/01/04 00:24:26;;;;;;;0.45;0.20;;;4.00;99.90;;;;;;5037706;28;20045;-48
2021/01/04 00:27:07;;;;;;;1.77;0.20;;;4.00;99.90;;;;;;5034310;28;20061;-49
2021/01/04 00:29:34;;;;;;;0.65;0.30;;;4.00;99.90;;;;;;5036924;28;20474;-48
2021/01/04 00:32:16;;;;;;;0.20;0.20;;;4.00;99.90;;;;;;5033960;28;20049;-48
2021/01/04 00:34:47;;;;;;;0.30;0.20;;;3.90;99.90;;;;;;5035115;28;20057;-48
2021/01/04 00:37:42;;;;;;;2.60;0.60;;;3.90;99.90;;;;;;5035390;28;20128;-48
2021/01/04 00:40:20;;;;;;;0.50;0.40;;;3.90;99.90;;;;;;5033201;28;20520;-48
2021/01/04 00:43:05;;;;;;;0.30;0.20;;;3.90;99.90;;;;;;5017989;28;20522;-50
2021/01/04 00:45:43;;;;;;;0.45;0.30;;;4.00;99.90;;;;;;5034083;28;20058;-50
2021/01/04 00:48:18;;;;;;;1.05;0.20;;;3.90;99.90;;;;;;5033380;28;20064;-48
2021/01/04 00:51:06;;;;;;;1.77;0.30;;;3.90;99.90;;;;;;5024041;28;20395;-48
2021/01/04 00:53:42;;;;;;;0.68;0.30;;;3.90;99.90;;;;;;5033389;28;20045;-48
2021/01/04 00:56:39;;;;;;;0.25;0.20;;;3.90;99.90;;;;;;5034244;28;20054;-49
2021/01/04 00:59:12;;;;;;;0.55;0.10;;;3.90;99.90;;;;;;5025819;28;20046;-48
2021/01/04 01:01:47;;;;;;;1.70;0.30;;;3.90;99.90;;;;;;5031043;28;20042;-48
2021/01/04 01:04:43;;;;;;;0.57;0.20;;;3.90;99.90;;;;;;5020013;28;20782;-49
2021/01/04 01:07:11;;;;;;;2.35;0.60;;;3.90;99.90;;;;;;5031438;28;20057;-48
2021/01/04 01:09:53;;;;;;;2.47;0.45;;;3.80;99.90;;;;;;5036001;28;20045;-48
2021/01/04 01:12:19;;;;;;;0.73;0.50;;;3.80;99.90;;;;;;5023826;28;20041;-49
2021/01/04 01:15:00;;;;;;;0.60;0.40;;;3.80;99.90;;;;;;5030287;28;20057;-48
2021/01/04 01:17:38;;;;;;;0.40;0.30;;;3.80;99.90;;;;;;5017761;28;20061;-49
2021/01/04 01:20:09;;;;;;;0.22;0.20;;;3.80;99.90;;;;;;5031968;28;20061;-48
2021/01/04 01:22:39;;;;;;;0.40;0.20;;;3.90;99.90;;;;;;5029717;28;20057;-48
2021/01/04 01:25:09;;;;;;;0.17;0.17;;;3.80;99.90;;;;;;5030085;28;20045;-50
2021/01/04 01:28:20;;;;;;;0.40;0.30;;;3.80;99.90;;;;;;5031140;28;20041;-48
2021/01/04 01:31:17;;;;;;;0.47;0.30;;;3.80;99.90;;;;;;5020902;28;20049;-48
2021/01/04 01:34:10;;;;;;;0.30;0.30;;;3.80;99.90;;;;;;5032822;28;20053;-49
2021/01/04 01:37:01;;;;;;;0.20;0.20;;;3.80;99.90;;;;;;5029603;28;20052;-48
2021/01/04 01:39:59;;;;;;;0.30;0.30;;;3.90;99.90;;;;;;5024839;28;20059;-48
2021/01/04 01:42:40;;;;;;;1.13;0.25;;;3.90;99.90;;;;;;5018226;28;20049;-48
2021/01/04 01:45:27;;;;;;;0.70;0.30;;;3.90;99.90;;;;;;5029199;28;20486;-48
2021/01/04 01:48:15;;;;;;;0.45;0.30;;;3.80;99.90;;;;;;5031087;28;20049;-50
2021/01/04 01:50:46;;;;;;;0.20;0.20;;;3.80;99.90;;;;;;5026985;28;20049;-48
2021/01/04 01:53:50;;;;;;;0.30;0.30;;;3.80;99.90;;;;;;5031533;28;20053;-48
2021/01/04 01:56:28;;;;;;;;;;;3.80;99.90;;;;;;5014994;28;20403;-48
2021/01/04 01:59:04;;;;;;;0.40;0.30;;;3.80;99.90;;;;;;5031400;28;20370;-48
2021/01/04 02:01:39;;;;;;;0.32;0.30;;;3.70;99.90;;;;;;5030304;28;20578;-48
2021/01/04 02:04:11;;;;;;;0.35;0.30;;;3.70;99.90;;;;;;5027181;28;20165;-48
2021/01/04 02:06:41;;;;;;;3.92;0.30;;;3.80;99.90;;;;;;5028122;28;20048;-48
2021/01/04 02:09:14;;;;;;;0.50;0.40;;;3.80;99.90;;;;;;5030427;28;20060;-48
2021/01/04 02:11:58;;;;;;;0.40;0.30;;;3.80;99.90;;;;;;5031219;28;20054;-48
2021/01/04 02:14:53;;;;;;;0.40;0.28;;;3.70;99.90;;;;;;5029230;28;20048;-48
2021/01/04 02:17:57;;;;;;;0.30;0.20;;;3.80;99.90;;;;;;5022569;28;20049;-51
2021/01/04 02:20:26;;;;;;;;;;;3.70;99.90;;;;;;5025372;28;20042;-48
2021/01/04 02:23:02;;;;;;;3.33;0.80;;;3.70;99.90;;;;;;5029073;28;19921;-48
2021/01/04 02:25:34;;;;;;;4.25;2.03;;;3.70;99.90;;;;;;5031916;28;20049;-48
2021/01/04 02:28:07;;;;;;;0.50;0.47;;;3.70;99.90;;;;;;5030551;28;20471;-48
2021/01/04 02:30:33;;;;;;;0.50;0.40;;;3.70;99.90;;;;;;5015314;28;20085;-48
2021/01/04 02:33:00;;;;;;;0.30;0.30;;;3.70;99.90;;;;;;5031646;28;20049;-48
2021/01/04 02:35:27;;;;;;;0.90;0.20;;;3.70;99.90;;;;;;5029197;28;20046;-48
2021/01/04 02:37:54;;;;;;;0.28;0.20;;;3.70;99.90;;;;;;5028469;28;20053;-48
2021/01/04 02:40:21;;;;;;;1.05;0.30;;;3.70;99.90;;;;;;5029508;28;20057;-48
2021/01/04 02:42:49;;;;;;;0.30;0.20;;;3.70;99.90;;;;;;5030934;28;20046;-48
2021/01/04 02:45:28;;;;;;;0.20;0.20;;;3.70;99.90;;;;;;5029610;28;20482;-49
2021/01/04 02:48:06;;;;;;;0.47;0.30;;;3.80;99.90;;;;;;5029007;28;21549;-48
2021/01/04 02:50:47;;;;;;;0.40;0.30;;;3.70;99.90;;;;;;5029846;28;20467;-48
2021/01/04 02:53:34;;;;;;;0.40;0.20;;;3.70;99.90;;;;;;5026860;28;20056;-49
2021/01/04 02:56:23;;;;;;;0.30;0.20;;;3.70;99.90;;;;;;5031810;28;20041;-49
2021/01/04 02:58:52;;;;;;;0.20;0.13;;;3.70;99.90;;;;;;5018747;28;20046;-49
2021/01/04 03:01:27;;;;;;;0.30;0.20;;;3.70;99.90;;;;;;5029940;28;21034;-48
2021/01/04 03:03:53;;;;;;;0.20;0.20;;;3.70;99.90;;;;;;5030537;28;20057;-49
2021/01/04 03:06:35;;;;;;;0.20;0.20;;;3.70;99.90;;;;;;5027453;28;20088;-48
2021/01/04 03:09:03;;;;;;;0.20;0.17;;;3.70;99.90;;;;;;5017306;28;20050;-49
2021/01/04 03:11:29;;;;;;;0.28;0.20;;;3.70;99.90;;;;;;5029681;28;20041;-48
2021/01/04 03:14:04;;;;;;;0.10;0.10;;;3.70;99.90;;;;;;5028480;28;20049;-48
2021/01/04 03:16:45;;;;;;;0.30;0.20;;;3.70;99.90;;;;;;5024704;28;20057;-48
2021/01/04 03:19:18;;;;;;;0.15;0.15;;;3.70;99.90;;;;;;5028457;28;20038;-52
2021/01/04 03:21:59;;;;;;;0.10;0.10;;;3.70;99.90;;;;;;5020087;28;20053;-50
2021/01/04 03:24:26;;;;;;;0.28;0.20;;;3.70;99.90;;;;;;5027164;28;20092;-48
2021/01/04 03:27:01;;;;;;;0.20;0.20;;;3.60;99.90;;;;;;5023476;28;20061;-48
2021/01/04 03:29:28;;;;;;;0.25;0.15;;;3.60;99.90;;;;;;5020726;28;20480;-48
2021/01/04 03:31:55;;;;;;;0.20;0.10;;;3.60;99.90;;;;;;5027867;28;20049;-49
2021/01/04 03:34:21;;;;;;;0.57;0.20;;;3.60;99.90;;;;;;5020042;28;20434;-48
2021/01/04 03:36:49;;;;;;;0.20;0.20;;;3.60;99.90;;;;;;5026811;28;20438;-49
2021/01/04 03:39:15;;;;;;;0.20;0.20;;;3.60;99.90;;;;;;5030347;28;20060;-48
2021/01/04 03:41:42;;;;;;;0.10;0.10;;;3.60;99.90;;;;;;5026447;28;20544;-48
2021/01/04 03:44:09;;;;;;;0.40;0.25;;;3.60;99.90;;;;;;5020269;28;20720;-48
2021/01/04 03:46:36;;;;;;;0.20;0.10;;;3.60;99.90;;;;;;5030535;28;20053;-48
2021/01/04 03:49:03;;;;;;;0.20;0.20;;;3.60;99.90;;;;;;5025852;28;20057;-48
2021/01/04 03:51:30;;;;;;;0.17;0.10;;;3.60;99.90;;;;;;5029007;28;20050;-48
2021/01/04 03:53:56;;;;;;;0.20;0.20;;;3.60;99.90;;;;;;5029281;28;20402;-48
2021/01/04 03:56:23;;;;;;;0.20;0.20;;;3.60;99.90;;;;;;5010987;28;20046;-48
2021/01/04 03:58:49;;;;;;;0.35;0.20;;;3.70;99.90;;;;;;5030145;28;20046;-48
2021/01/04 04:01:16;;;;;;;0.45;0.20;;;3.60;99.90;;;;;;5030263;28;20053;-48
2021/01/04 04:03:43;;;;;;;0.20;0.13;;;3.60;99.90;;;;;;5029450;28;20053;-48
2021/01/04 04:06:11;;;;;;;1.13;0.20;;;3.60;99.90;;;;;;5024984;28;20057;-48
2021/01/04 04:08:40;;;;;;;0.25;0.20;;;3.60;99.90;;;;;;5028388;28;20386;-48
2021/01/04 04:11:07;;;;;;;0.30;0.20;;;3.60;99.90;;;;;;5029794;28;20060;-48
2021/01/04 04:13:34;;;;;;;0.30;0.20;;;3.70;99.90;;;;;;5013214;28;20141;-48
2021/01/04 04:16:01;;;;;;;1.00;0.22;;;3.70;99.90;;;;;;5028934;28;20356;-48
2021/01/04 04:18:27;;;;;;;0.43;0.40;;;3.70;99.90;;;;;;5029170;28;20498;-48
2021/01/04 04:20:54;;;;;;;0.50;0.40;;;3.70;99.90;;;;;;5024358;28;20088;-48
2021/01/04 04:23:21;;;;;;;1.63;0.40;;;3.60;99.90;;;;;;5028001;28;20049;-48
2021/01/04 04:25:47;;;;;;;0.40;0.30;;;3.60;99.90;;;;;;5017668;28;20125;-48
2021/01/04 04:28:14;;;;;;;0.50;0.20;;;3.70;99.90;;;;;;5022156;28;20153;-49
2021/01/04 04:30:40;;;;;;;0.45;0.28;;;3.60;99.90;;;;;;5029537;28;20038;-48
2021/01/04 04:33:07;;;;;;;0.40;0.40;;;3.60;99.90;;;;;;5029961;28;20424;-48
2021/01/04 04:35:33;;;;;;;0.52;0.40;;;3.60;99.90;;;;;;5028879;28;20058;-48
2021/01/04 04:38:00;;;;;;;1.10;0.30;;;3.60;99.90;;;;;;5029444;28;20069;-48
2021/01/04 04:40:33;;;;;;;0.30;0.30;;;3.60;99.90;;;;;;5028133;28;20045;-52
2021/01/04 04:43:42;;;;;;;0.32;0.30;;;3.60;99.90;;;;;;5029623;28;20045;-49
2021/01/04 04:46:37;;;;;;;0.38;0.20;;;3.60;99.90;;;;;;5025085;28;20056;-48
2021/01/04 04:49:20;;;;;;;0.20;0.20;;;3.50;99.90;;;;;;5020030;28;20048;-50
2021/01/04 04:52:22;;;;;;;1.17;0.20;;;3.50;99.90;;;;;;5025873;28;20049;-48
2021/01/04 04:54:57;;;;;;;0.28;0.20;;;3.50;99.90;;;;;;5025221;28;20050;-48
2021/01/04 04:57:57;;;;;;;0.20;0.20;;;3.60;99.90;;;;;;5021513;28;20052;-48
2021/01/04 05:00:42;;;;;;;0.50;0.20;;;3.60;99.90;;;;;;5017056;28;20062;-49
2021/01/04 05:03:21;;;;;;;3.75;0.70;;;3.50;99.90;;;;;;5022807;28;20045;-49
2021/01/04 05:05:56;;;;;;;0.50;0.20;;;3.50;99.90;;;;;;5015541;28;20064;-48
2021/01/04 05:08:51;;;;;;;0.20;0.20;;;3.40;99.90;;;;;;5034071;28;20387;-48
2021/01/04 05:11:23;;;;;;;0.30;0.20;;;3.40;99.90;;;;;;5033197;28;20114;-48
2021/01/04 05:13:52;;;;;;;0.35;0.22;;;3.50;99.90;;;;;;5030966;28;20054;-48
2021/01/04 05:16:43;;;;;;;0.40;0.30;;;3.50;99.90;;;;;;5032393;28;20124;-48
2021/01/04 05:19:42;;;;;;;0.68;0.40;;;3.50;99.90;;;;;;5031206;28;20076;-49
2021/01/04 05:22:38;;;;;;;1.20;0.40;;;3.50;99.90;;;;;;5032400;28;20562;-48
2021/01/04 05:25:53;;;;;;;0.30;0.20;;;3.50;99.90;;;;;;5029834;28;20057;-49
2021/01/04 05:28:28;;;;;;;0.30;0.30;;;3.50;99.90;;;;;;4999704;28;20061;-48
2021/01/04 05:31:13;;;;;;;0.52;0.20;;;3.40;99.90;;;;;;5031884;28;20053;-48
2021/01/04 05:33:58;;;;;;;0.40;0.35;;;3.50;99.90;;;;;;5032769;28;20512;-48
2021/01/04 05:36:44;;;;;;;0.30;0.30;;;3.50;99.90;;;;;;5022691;28;20536;-48
2021/01/04 05:39:22;;;;;;;0.98;0.30;;;3.50;99.90;;;;;;5018290;28;20058;-48
2021/01/04 05:42:20;;;;;;;0.30;0.30;;;3.50;99.90;;;;;;5028621;28;20061;-48
2021/01/04 05:45:12;;;;;;;1.95;0.30;;;3.50;99.90;;;;;;5027300;28;20057;-51
2021/01/04 05:48:04;;;;;;;2.47;1.35;;;3.50;99.90;;;;;;5023291;28;20049;-48
2021/01/04 05:50:53;;;;;;;3.17;1.70;;;3.50;99.90;;;;;;5029804;28;20061;-48
2021/01/04 05:53:21;;;;;;;3.05;0.68;;;3.50;99.90;;;;;;5028552;28;20049;-48
2021/01/04 05:55:54;;;;;;;1.40;0.90;;;3.50;99.90;;;;;;5033347;28;20045;-48
2021/01/04 05:58:23;;;;;;;;;;;3.50;99.90;;;;;;5031119;28;20052;-48
2021/01/04 06:00:50;;;;;;;2.95;1.40;;;3.50;99.90;;;;;;5031428;28;19947;-48
2021/01/04 06:03:19;;;;;;;0.80;0.70;;;3.50;99.90;;;;;;5029886;28;20045;-49
2021/01/04 06:05:47;;;;;;;0.40;0.40;;;3.50;99.90;;;;;;5015965;28;20046;-48
2021/01/04 06:08:27;;;;;;;0.30;0.30;;;3.50;99.90;;;;;;5031983;28;20503;-48
2021/01/04 06:11:03;;;;;;;1.85;0.20;;;3.50;99.90;;;;;;5029444;28;20045;-48
2021/01/04 06:13:41;;;;;;;0.35;0.20;;;3.50;99.90;;;;;;5031775;28;20060;-50
2021/01/04 06:16:15;;;;;;;0.22;0.20;;;3.50;99.90;;;;;;5028586;28;20524;-48
2021/01/04 06:18:52;;;;;;;;;;;3.50;99.90;;;;;;5016553;28;20054;-49
2021/01/04 06:21:41;;;;;;;0.28;0.20;;;3.40;99.90;;;;;;5030037;28;20372;-48
2021/01/04 06:24:10;;;;;;;0.10;0.10;;;3.50;99.90;;;;;;5027093;28;20057;-48
2021/01/04 06:26:40;;;;;;;0.25;0.25;;;3.50;99.90;;;;;;5015725;28;20058;-51
2021/01/04 06:29:08;;;;;;;0.80;0.60;;;3.50;99.90;;;;;;5027737;28;20391;-50
2021/01/04 06:31:42;;;;;;;0.80;0.60;;;3.50;99.90;;;;;;5015561;28;20059;-50
2021/01/04 06:34:35;;;;;;;0.90;0.70;;;3.50;99.90;;;;;;5021840;28;20046;-50
2021/01/04 06:37:15;;;;;;;1.00;0.70;;;3.50;99.90;;;;;;5028019;28;20049;-50
2021/01/04 06:39:59;;;;;;;0.90;0.70;;;3.60;99.90;;;;;;5027253;28;20045;-52
2021/01/04 06:42:26;;;;;;;1.90;0.80;;;3.60;99.90;;;;;;5031751;28;20283;-50
2021/01/04 06:45:11;;;;;;;2.90;0.77;;;3.60;99.90;;;;;;5028951;28;20057;-51
2021/01/04 06:47:44;;;;;;;0.60;0.60;;;3.70;99.90;;;;;;5018590;28;20073;-50
2021/01/04 06:50:36;;;;;;;1.70;0.63;;;3.70;99.90;;;;;;5024578;28;20041;-51
2021/01/04 06:53:21;;;;;;;1.60;0.90;;;3.70;99.90;;;;;;5029106;28;20050;-51
2021/01/04 06:56:13;;;;;;;1.90;0.93;;;3.60;99.90;;;;;;5020124;28;20777;-50
2021/01/04 06:59:00;;;;;;;1.23;0.80;;;3.60;99.90;;;;;;5022858;28;20061;-50
2021/01/04 07:01:54;;;;;;;1.10;0.93;;;3.60;99.90;;;;;;5019740;28;20049;-51
2021/01/04 07:04:58;;;;;;;1.00;0.60;;;3.60;99.90;;;;;;5024128;28;20049;-50
2021/01/04 07:08:04;;;;;;;0.70;0.70;;;3.60;99.90;;;;;;5026366;28;20045;-50
2021/01/04 07:11:03;;;;;;;1.02;0.90;;;3.60;99.90;;;;;;5019138;28;20053;-50
2021/01/04 07:13:36;;;;;;;9.90;5.90;;;3.60;99.90;;;;;;5028207;28;20052;-50
2021/01/04 07:16:08;;;;;;;6.95;4.03;;;3.60;99.90;;;;;;5026990;28;20050;-50
2021/01/04 07:19:07;;;;;;;14.25;6.82;;;3.60;99.90;;;;;;5013913;28;20057;-50
2021/01/04 07:21:42;;;;;;;6.00;3.10;;;3.60;99.90;;;;;;5021472;28;20054;-50
2021/01/04 07:24:17;;;;;;;6.50;1.73;;;3.60;99.90;;;;;;5022240;28;20045;-50
2021/01/04 07:27:06;;;;;;;1.08;0.70;;;3.60;99.90;;;;;;5023875;28;20403;-51
2021/01/04 07:30:10;;;;;;;2.55;0.80;;;3.60;99.90;;;;;;5029144;28;20503;-50
2021/01/04 07:32:50;;;;;;;1.07;0.97;;;3.60;99.90;;;;;;5028948;28;20052;-50
2021/01/04 07:35:37;;;;;;;1.58;1.20;;;3.60;99.90;;;;;;5029358;28;20049;-50
2021/01/04 07:38:16;;;;;;;3.72;2.03;;;3.60;99.90;;;;;;5029526;28;20514;-50
2021/01/04 07:41:01;;;;;;;4.20;1.60;;;3.60;99.90;;;;;;5028165;28;20068;-50
2021/01/04 07:43:52;;;;;;;5.47;1.88;;;3.60;99.90;;;;;;5018470;28;20060;-51
2021/01/04 07:47:04;;;;;;;5.50;1.75;;;3.60;99.90;;;;;;5026940;28;20103;-51
2021/01/04 07:50:08;;;;;;;3.90;1.40;;;3.70;99.90;;;;;;5028064;28;20415;-50
2021/01/04 07:53:14;;;;;;;2.30;0.90;;;3.70;99.90;;;;;;5020329;28;20057;-50
2021/01/04 07:55:52;;;;;;;4.80;1.17;;;3.70;99.90;;;;;;5030979;28;20045;-50
2021/01/04 07:58:52;;;;;;;1.75;0.80;;;3.80;99.90;;;;;;5030444;28;20045;-50
2021/01/04 08:02:00;;;;;;;1.75;0.90;;;3.80;99.90;;;;;;5015696;28;20050;-51
2021/01/04 08:04:38;;;;;;;3.20;1.08;;;3.80;99.90;;;;;;4987494;28;20039;-50
2021/01/04 08:07:12;;;;;;;1.13;1.00;;;3.80;99.90;;;;;;4979068;28;20058;-50
2021/01/04 08:10:09;;;;;;;0.98;0.88;;;3.80;99.90;;;;;;5015123;28;20757;-51
2021/01/04 08:13:19;;;;;;;2.53;1.10;;;3.70;99.90;;;;;;5029981;28;20057;-50
2021/01/04 08:15:50;;;;;;;1.30;0.80;;;3.80;99.90;;;;;;5029709;28;20056;-50
2021/01/04 08:18:20;;;;;;;2.35;0.80;;;3.80;99.90;;;;;;5025446;28;20049;-50
2021/01/04 08:21:19;;;;;;;3.85;0.90;;;3.90;99.90;;;;;;5024971;28;20056;-50
2021/01/04 08:23:51;;;;;;;3.10;1.20;;;3.80;99.90;;;;;;5017035;28;20429;-50
2021/01/04 08:26:41;;;;;;;3.28;1.10;;;3.80;99.90;;;;;;5030124;28;20494;-51
2021/01/04 08:29:37;;;;;;;0.90;0.80;;;3.90;99.90;;;;;;5023695;28;20072;-50
2021/01/04 08:32:21;;;;;;;0.90;0.80;;;3.90;99.90;;;;;;5014390;28;20038;-50
2021/01/04 08:34:49;;;;;;;11.40;6.97;;;3.90;99.90;;;;;;5029613;28;20054;-50
2021/01/04 08:37:38;;;;;;;2.40;1.15;;;3.90;99.90;;;;;;5030003;28;20404;-50
2021/01/04 08:40:31;;;;;;;5.80;3.03;;;4.00;99.90;;;;;;5030357;28;20050;-51
2021/01/04 08:43:10;;;;;;;8.20;4.20;;;4.00;99.90;;;;;;5028065;28;20049;-51
2021/01/04 08:45:45;;;;;;;2.88;0.90;;;4.00;99.90;;;;;;5023354;28;20490;-51
2021/01/04 08:48:33;;;;;;;1.38;1.02;;;4.00;99.90;;;;;;5035319;28;20471;-50
2021/01/04 08:51:14;;;;;;;2.08;0.80;;;4.00;99.90;;;;;;5031264;28;20045;-50
2021/01/04 08:54:03;;;;;;;1.10;0.70;;;4.10;99.90;;;;;;5020887;28;20038;-50
2021/01/04 08:56:41;;;;;;;1.30;0.90;;;4.10;99.90;;;;;;5032681;28;20386;-50
2021/01/04 08:59:14;;;;;;;0.98;0.80;;;4.20;99.90;;;;;;5032959;28;20057;-50
2021/01/04 09:01:58;;;;;;;1.92;0.70;;;4.20;99.90;;;;;;5016685;28;20061;-52
2021/01/04 09:04:36;;;;;;;0.60;0.60;;;4.20;99.90;;;;;;5026860;28;20057;-50
2021/01/04 09:07:09;;;;;;;0.80;0.80;;;4.20;99.90;;;;;;5023160;28;20064;-50
2021/01/04 09:09:40;;;;;;;1.10;0.80;;;4.30;99.90;;;;;;5032857;28;20067;-50
2021/01/04 09:12:28;;;;;;;6.68;4.50;;;4.30;99.90;;;;;;5030912;28;20064;-50
2021/01/04 09:15:04;;;;;;;5.03;4.22;;;4.30;99.90;;;;;;5017039;28;20100;-51
2021/01/04 09:17:38;;;;;;;2.70;1.83;;;4.40;99.90;;;;;;5033966;28;20061;-51
2021/01/04 09:20:47;;;;;;;1.90;1.60;;;4.40;99.90;;;;;;5023247;28;20131;-50
2021/01/04 09:23:33;;;;;;;4.97;1.98;;;4.40;99.90;;;;;;5015523;28;20053;-50
2021/01/04 09:26:08;;;;;;;10.00;4.47;;;4.40;99.90;;;;;;5030338;28;20505;-51
2021/01/04 09:28:45;;;;;;;5.40;4.07;;;4.50;99.90;;;;;;5031684;28;20053;-50
2021/01/04 09:31:17;;;;;;;3.75;3.05;;;4.50;99.90;;;;;;5033856;28;20052;-51
2021/01/04 09:33:50;;;;;;;4.90;1.95;;;4.50;99.90;;;;;;5032094;28;20528;-50
2021/01/04 09:36:20;;;;;;;3.85;2.63;;;4.50;99.90;;;;;;5020928;28;20037;-50
2021/01/04 09:38:49;;;;;;;2.53;1.88;;;4.60;99.90;;;;;;5030740;28;20537;-50
2021/01/04 09:41:15;;;;;;;3.78;3.28;;;4.70;99.90;;;;;;5029300;28;20053;-51
2021/01/04 09:43:42;;;;;;;3.60;3.10;;;4.70;99.90;;;;;;5033257;28;20061;-50
2021/01/04 09:46:52;;;;;;;4.43;2.38;;;4.70;99.90;;;;;;5030957;28;20782;-50
2021/01/04 09:49:39;;;;;;;2.85;2.05;;;4.70;99.90;;;;;;5015992;28;20050;-50
2021/01/04 09:52:41;;;;;;;2.00;1.00;;;4.80;99.90;;;;;;5022033;28;20383;-50
2021/01/04 09:55:10;;;;;;;1.08;0.80;;;4.80;99.90;;;;;;5028101;28;20045;-50
2021/01/04 09:57:42;;;;;;;1.10;0.68;;;4.90;99.90;;;;;;5013403;28;20046;-50
2021/01/04 10:00:36;;;;;;;2.55;0.80;;;4.80;99.90;;;;;;5033063;28;20049;-50
2021/01/04 10:03:05;;;;;;;0.40;0.40;;;4.90;99.90;;;;;;5030609;28;20057;-51
2021/01/04 10:05:34;;;;;;;0.40;0.38;;;4.90;99.90;;;;;;5018717;28;20077;-50
2021/01/04 10:08:05;;;;;;;2.63;0.20;;;4.90;99.90;;;;;;5027770;28;20060;-50
2021/01/04 10:10:32;;;;;;;0.20;0.20;;;4.90;99.90;;;;;;5030155;28;20045;-50
2021/01/04 10:13:13;;;;;;;0.15;0.10;;;4.90;99.90;;;;;;5026386;28;20049;-50
2021/01/04 10:15:41;;;;;;;0.10;0.08;;;4.90;99.90;;;;;;5019451;28;20053;-51
2021/01/04 10:18:15;;;;;;;0.20;0.10;;;4.90;99.90;;;;;;5032144;28;20054;-51
2021/01/04 10:20:53;;;;;;;0.30;0.10;;;4.90;99.90;;;;;;5026608;28;20064;-50
2021/01/04 10:23:28;;;;;;;0.60;0.40;;;5.00;99.90;;;;;;5015602;28;20053;-51
2021/01/04 10:25:58;;;;;;;0.50;0.30;;;5.00;99.90;;;;;;5024388;28;20057;-50
2021/01/04 10:28:33;;;;;;;0.40;0.30;;;5.00;99.90;;;;;;5016339;28;20041;-50
2021/01/04 10:31:14;;;;;;;0.30;0.20;;;5.00;99.90;;;;;;5031017;28;20667;-50
2021/01/04 10:33:41;;;;;;;1.98;0.30;;;5.10;99.90;;;;;;5023307;28;20640;-50
2021/01/04 10:36:09;;;;;;;2.05;0.30;;;5.00;99.90;;;;;;5031400;28;20498;-50
2021/01/04 10:38:39;;;;;;;0.25;0.10;;;5.00;99.90;;;;;;5028847;28;20457;-50
2021/01/04 10:41:14;;;;;;;0.57;0.20;;;5.10;99.90;;;;;;5029863;28;20053;-53
2021/01/04 10:43:41;;;;;;;0.10;0.10;;;5.00;99.90;;;;;;5022986;28;20050;-51
2021/01/04 10:46:42;;;;;;;0.20;0.10;;;5.10;99.90;;;;;;5019385;28;20045;-50
2021/01/04 10:49:22;;;;;;;1.02;0.35;;;5.20;99.90;;;;;;5013242;28;20042;-50
2021/01/04 10:51:51;;;;;;;0.60;0.30;;;5.30;99.90;;;;;;5026960;28;20068;-50
2021/01/04 10:54:39;;;;;;;0.35;0.20;;;5.40;99.90;;;;;;5017337;28;20045;-50
2021/01/04 10:57:12;;;;;;;0.60;0.40;;;5.50;99.90;;;;;;5030616;28;20049;-50
2021/01/04 10:59:40;;;;;;;0.90;0.30;;;5.50;99.90;;;;;;5029127;28;20053;-50
2021/01/04 11:02:07;;;;;;;2.38;0.20;;;5.50;99.90;;;;;;5043916;28;20054;-53
2021/01/04 11:04:35;;;;;;;0.45;0.40;;;5.50;99.90;;;;;;5025275;28;20037;-50
2021/01/04 11:07:13;;;;;;;0.75;0.10;;;5.50;99.90;;;;;;5016017;28;20044;-52
2021/01/04 11:09:41;;;;;;;0.80;0.30;;;5.80;99.90;;;;;;5021907;28;20061;-50
2021/01/04 11:12:23;;;;;;;0.38;0.30;;;5.90;99.90;;;;;;5028284;28;20053;-50
2021/01/04 11:14:52;;;;;;;1.08;0.10;;;5.90;99.90;;;;;;5045970;28;20116;-51
2021/01/04 11:17:22;;;;;;;0.47;0.20;;;6.00;99.90;;;;;;5026969;28;20050;-50
2021/01/04 11:19:50;;;;;;;0.55;0.28;;;6.10;99.90;;;;;;5029133;28;20050;-53
2021/01/04 11:22:26;;;;;;;0.30;0.28;;;6.10;99.90;;;;;;5028621;28;20053;-50
2021/01/04 11:24:55;;;;;;;0.38;0.20;;;6.10;99.90;;;;;;5019738;28;20054;-50
2021/01/04 11:27:22;;;;;;;0.43;0.40;;;6.20;99.90;;;;;;5028913;28;20533;-50
2021/01/04 11:29:50;;;;;;;0.40;0.40;;;6.30;99.90;;;;;;5029113;28;20045;-50
2021/01/04 11:32:19;;;;;;;0.60;0.40;;;6.40;99.90;;;;;;5031736;28;20482;-50
2021/01/04 11:34:51;;;;;;;0.50;0.45;;;6.50;99.90;;;;;;5030213;28;20052;-50
2021/01/04 11:37:20;;;;;;;2.28;0.40;;;6.70;99.90;;;;;;5027741;28;20048;-53
2021/01/04 11:39:49;;;;;;;11.90;5.05;;;6.80;99.90;;;;;;5028442;28;20499;-50
2021/01/04 11:42:16;;;;;;;0.13;0.10;;;6.80;99.90;;;;;;5025994;28;20045;-51
2021/01/04 11:44:43;;;;;;;0.70;0.10;;;6.90;99.90;;;;;;5026384;28;20046;-50
2021/01/04 11:47:10;;;;;;;0.05;0.05;;;6.90;99.90;;;;;;5026874;28;20045;-50
2021/01/04 11:49:37;;;;;;;0.13;0.10;;;6.80;99.90;;;;;;5044340;28;20045;-52
2021/01/04 11:52:04;;;;;;;0.50;0.30;;;6.70;99.90;;;;;;5031367;28;20049;-51
2021/01/04 11:54:31;;;;;;;0.00;0.00;;;6.60;99.90;;;;;;5014234;28;20045;-53
2021/01/04 11:56:57;;;;;;;0.95;0.00;;;6.60;99.90;;;;;;5026595;28;20042;-51
2021/01/04 11:59:24;;;;;;;0.43;0.43;;;6.70;99.90;;;;;;5027419;28;20053;-52
2021/01/04 12:01:53;;;;;;;1.50;0.35;;;6.70;99.90;;;;;;5030252;28;20119;-50
2021/01/04 12:04:20;;;;;;;0.95;0.30;;;6.70;99.90;;;;;;5029074;28;20049;-50
2021/01/04 12:06:49;;;;;;;2.35;0.98;;;6.70;99.90;;;;;;5016953;28;20061;-54
2021/01/04 12:09:16;;;;;;;2.95;0.32;;;6.70;99.90;;;;;;5028463;28;20044;-50
2021/01/04 12:11:44;;;;;;;0.17;0.10;;;6.90;99.90;;;;;;5028957;28;20475;-50
2021/01/04 12:14:11;;;;;;;0.20;0.20;;;6.80;99.90;;;;;;5030102;28;20052;-50
2021/01/04 12:16:37;;;;;;;0.10;0.10;;;6.80;99.90;;;;;;5030101;28;20048;-50
2021/01/04 12:19:05;;;;;;;1.63;0.00;;;6.70;99.90;;;;;;5029348;28;20493;-50
2021/01/04 12:21:33;;;;;;;0.57;0.10;;;6.60;99.90;;;;;;5027517;28;20053;-50
2021/01/04 12:24:00;;;;;;;1.00;0.00;;;6.60;99.90;;;;;;5021010;28;20480;-50
2021/01/04 12:26:28;;;;;;;0.03;0.00;;;6.60;99.90;;;;;;5024012;28;20049;-50
2021/01/04 12:28:55;;;;;;;0.88;0.22;;;6.50;99.90;;;;;;5013348;28;20391;-54
2021/01/04 12:31:22;;;;;;;0.40;0.38;;;6.60;99.90;;;;;;5028795;28;20056;-51
2021/01/04 12:33:49;;;;;;;0.20;0.20;;;6.50;99.90;;;;;;5029284;28;20056;-50
2021/01/04 12:36:29;;;;;;;0.20;0.10;;;6.50;99.90;;;;;;5021304;28;20499;-50
2021/01/04 12:38:55;;;;;;;0.90;0.20;;;6.50;99.90;;;;;;5019727;28;20041;-50
2021/01/04 12:41:22;;;;;;;0.40;0.35;;;6.60;99.90;;;;;;5022619;28;20057;-51
2021/01/04 12:43:49;;;;;;;3.60;1.20;;;6.70;99.90;;;;;;5024897;28;20060;-54
2021/01/04 12:46:16;;;;;;;1.00;0.60;;;6.70;99.90;;;;;;5011722;28;20046;-51
2021/01/04 12:48:44;;;;;;;0.40;0.20;;;6.90;99.90;;;;;;5028474;28;20049;-50
2021/01/04 12:51:13;;;;;;;0.98;0.63;;;7.00;99.90;;;;;;5029514;28;20056;-50
2021/01/04 12:53:40;;;;;;;0.30;0.20;;;7.00;99.90;;;;;;5018456;28;20375;-50
2021/01/04 12:56:08;;;;;;;0.82;0.20;;;6.90;99.90;;;;;;5023240;28;20401;-50
2021/01/04 12:58:38;;;;;;;0.30;0.30;;;6.80;99.90;;;;;;5020067;28;20501;-50
2021/01/04 13:01:05;;;;;;;1.45;0.28;;;6.80;99.90;;;;;;5026885;28;20495;-50
2021/01/04 13:03:44;;;;;;;0.35;0.20;;;6.70;99.90;;;;;;5018352;28;20053;-52
2021/01/04 13:06:22;;;;;;;1.02;0.20;;;6.70;99.90;;;;;;5029975;28;20045;-50
2021/01/04 13:08:48;;;;;;;0.50;0.20;;;6.80;99.90;;;;;;5026802;28;20048;-52
2021/01/04 13:11:15;;;;;;;0.30;0.20;;;6.80;99.90;;;;;;5029040;28;20045;-50
2021/01/04 13:13:41;;;;;;;0.30;0.22;;;6.80;99.90;;;;;;5029082;28;20049;-50
2021/01/04 13:16:09;;;;;;;0.47;0.20;;;6.70;99.90;;;;;;5025597;28;20508;-50
2021/01/04 13:18:36;;;;;;;0.35;0.10;;;6.70;99.90;;;;;;5027633;28;20450;-50
2021/01/04 13:21:02;;;;;;;0.20;0.10;;;6.70;99.90;;;;;;5029189;28;20053;-50
2021/01/04 13:23:28;;;;;;;0.13;0.10;;;6.70;99.90;;;;;;5022441;28;20482;-52
2021/01/04 13:25:55;;;;;;;0.73;0.20;;;6.80;99.90;;;;;;5027085;28;20050;-50
2021/01/04 13:28:22;;;;;;;0.50;0.20;;;6.80;99.90;;;;;;5033068;28;20497;-50
2021/01/04 13:30:49;;;;;;;2.05;0.10;;;6.70;99.90;;;;;;5030730;28;20074;-50
2021/01/04 13:33:15;;;;;;;0.82;0.17;;;6.70;99.90;;;;;;5030835;28;20438;-51
2021/01/04 13:35:42;;;;;;;0.40;0.20;;;6.70;99.90;;;;;;5026774;28;20045;-50
2021/01/04 13:38:08;;;;;;;0.28;0.13;;;6.70;99.90;;;;;;5024502;28;20446;-50
2021/01/04 13:40:35;;;;;;;1.40;0.28;;;6.70;99.90;;;;;;5032228;28;20391;-50
2021/01/04 13:43:01;;;;;;;1.30;0.30;;;6.60;99.90;;;;;;5031115;28;20056;-51
2021/01/04 13:45:28;;;;;;;0.52;0.22;;;6.60;99.90;;;;;;5021564;28;20061;-52
2021/01/04 13:47:54;;;;;;;2.50;0.30;;;6.60;99.90;;;;;;5024624;28;20045;-52
2021/01/04 13:50:21;;;;;;;0.82;0.50;;;6.60;99.90;;;;;;5033048;28;20049;-50